sensor_id;sensor_type;location;lat;lon;timestamp;P1;durP1;ratioP1;P2;durP2;ratioP2
15254;SDS011;7730;49.610;11.136;2023-09-08T00:00:07;11.15;;;4.70;;
15254;SDS011;7730;49.610;11.136;2023-09-08T00:02:35;10.00;;;4.70;;
15254;SDS011;7730;49.610;11.136;2023-09-08T00:05:02;11.70;;;5.22;;
15254;SDS011;7730;49.610;11.136;2023-09-08T00:07:29;11.60;;;5.45;;
15254;SDS011;7730;49.610;11.136;2023-09-08T00:09:57;11.50;;;5.32;;
15254;SDS011;7730;49.610;11.136;2023-09-08T00:12:25;9.25;;;4.85;;
15254;SDS011;7730;49.610;11.136;2023-09-08T00:14:54;10.65;;;5.15;;
15254;SDS011;7730;49.610;11.136;2023-09-08T00:17:22;11.10;;;5.40;;
15254;SDS011;7730;49.610;11.136;2023-09-08T00:19:49;6.95;;;4.00;;
15254;SDS011;7730;49.610;11.136;2023-09-08T00:22:16;9.02;;;3.85;;
15254;SDS011;7730;49.610;11.136;2023-09-08T00:24:43;7.65;;;3.88;;
15254;SDS011;7730;49.610;11.136;2023-09-08T00:27:10;9.65;;;4.28;;
15254;SDS011;7730;49.610;11.136;2023-09-08T00:29:37;7.75;;;4.05;;
15254;SDS011;7730;49.610;11.136;2023-09-08T00:32:05;8.25;;;4.18;;
15254;SDS011;7730;49.610;11.136;2023-09-08T00:34:33;8.23;;;3.90;;
15254;SDS011;7730;49.610;11.136;2023-09-08T00:37:00;8.13;;;4.05;;
15254;SDS011;7730;49.610;11.136;2023-09-08T00:39:32;8.13;;;4.15;;
15254;SDS011;7730;49.610;11.136;2023-09-08T00:41:59;10.07;;;4.50;;
15254;SDS011;7730;49.610;11.136;2023-09-08T00:44:26;10.55;;;4.97;;
15254;SDS011;7730;49.610;11.136;2023-09-08T00:46:53;9.07;;;4.65;;
15254;SDS011;7730;49.610;11.136;2023-09-08T00:49:20;9.68;;;5.00;;
15254;SDS011;7730;49.610;11.136;2023-09-08T00:51:50;10.52;;;5.07;;
15254;SDS011;7730;49.610;11.136;2023-09-08T00:54:18;10.05;;;4.75;;
15254;SDS011;7730;49.610;11.136;2023-09-08T00:56:46;11.35;;;4.72;;
15254;SDS011;7730;49.610;11.136;2023-09-08T00:59:13;10.73;;;4.78;;
15254;SDS011;7730;49.610;11.136;2023-09-08T01:01:41;8.02;;;4.25;;
15254;SDS011;7730;49.610;11.136;2023-09-08T01:04:08;8.45;;;3.88;;
15254;SDS011;7730;49.610;11.136;2023-09-08T01:06:35;7.03;;;3.80;;
15254;SDS011;7730;49.610;11.136;2023-09-08T01:09:04;8.63;;;4.10;;
15254;SDS011;7730;49.610;11.136;2023-09-08T01:11:32;8.60;;;4.07;;
15254;SDS011;7730;49.610;11.136;2023-09-08T01:13:59;7.38;;;3.80;;
15254;SDS011;7730;49.610;11.136;2023-09-08T01:16:27;7.50;;;3.90;;
15254;SDS011;7730;49.610;11.136;2023-09-08T01:18:54;7.82;;;3.97;;
15254;SDS011;7730;49.610;11.136;2023-09-08T01:21:30;8.80;;;4.05;;
15254;SDS011;7730;49.610;11.136;2023-09-08T01:24:12;7.43;;;3.70;;
15254;SDS011;7730;49.610;11.136;2023-09-08T01:26:47;8.10;;;4.10;;
15254;SDS011;7730;49.610;11.136;2023-09-08T01:29:15;8.75;;;3.80;;
15254;SDS011;7730;49.610;11.136;2023-09-08T01:31:44;7.38;;;3.78;;
15254;SDS011;7730;49.610;11.136;2023-09-08T01:34:11;7.47;;;3.95;;
15254;SDS011;7730;49.610;11.136;2023-09-08T01:36:38;8.02;;;3.78;;
15254;SDS011;7730;49.610;11.136;2023-09-08T01:39:05;10.15;;;4.20;;
15254;SDS011;7730;49.610;11.136;2023-09-08T01:41:32;7.95;;;3.85;;
15254;SDS011;7730;49.610;11.136;2023-09-08T01:44:01;7.65;;;3.97;;
15254;SDS011;7730;49.610;11.136;2023-09-08T01:46:33;7.78;;;3.70;;
15254;SDS011;7730;49.610;11.136;2023-09-08T01:49:01;8.32;;;3.85;;
15254;SDS011;7730;49.610;11.136;2023-09-08T01:51:28;7.88;;;3.75;;
15254;SDS011;7730;49.610;11.136;2023-09-08T01:53:55;7.75;;;3.85;;
15254;SDS011;7730;49.610;11.136;2023-09-08T01:56:22;7.65;;;3.90;;
15254;SDS011;7730;49.610;11.136;2023-09-08T01:58:51;9.60;;;3.70;;
15254;SDS011;7730;49.610;11.136;2023-09-08T02:01:19;9.15;;;3.97;;
15254;SDS011;7730;49.610;11.136;2023-09-08T02:03:46;7.80;;;3.83;;
15254;SDS011;7730;49.610;11.136;2023-09-08T02:06:15;9.43;;;4.05;;
15254;SDS011;7730;49.610;11.136;2023-09-08T02:08:42;8.68;;;4.03;;
15254;SDS011;7730;49.610;11.136;2023-09-08T02:11:12;8.68;;;4.00;;
15254;SDS011;7730;49.610;11.136;2023-09-08T02:13:40;8.50;;;4.00;;
15254;SDS011;7730;49.610;11.136;2023-09-08T02:16:12;8.40;;;4.00;;
15254;SDS011;7730;49.610;11.136;2023-09-08T02:18:41;8.38;;;3.90;;
15254;SDS011;7730;49.610;11.136;2023-09-08T02:21:08;9.50;;;4.40;;
15254;SDS011;7730;49.610;11.136;2023-09-08T02:23:37;9.32;;;4.00;;
15254;SDS011;7730;49.610;11.136;2023-09-08T02:26:04;9.52;;;4.43;;
15254;SDS011;7730;49.610;11.136;2023-09-08T02:28:31;7.68;;;3.60;;
15254;SDS011;7730;49.610;11.136;2023-09-08T02:30:58;8.73;;;3.78;;
15254;SDS011;7730;49.610;11.136;2023-09-08T02:33:25;7.75;;;4.03;;
15254;SDS011;7730;49.610;11.136;2023-09-08T02:35:55;7.88;;;3.80;;
15254;SDS011;7730;49.610;11.136;2023-09-08T02:38:23;7.72;;;3.95;;
15254;SDS011;7730;49.610;11.136;2023-09-08T02:40:51;9.93;;;4.20;;
15254;SDS011;7730;49.610;11.136;2023-09-08T02:43:18;8.90;;;4.57;;
15254;SDS011;7730;49.610;11.136;2023-09-08T02:45:46;7.88;;;4.07;;
15254;SDS011;7730;49.610;11.136;2023-09-08T02:48:13;9.00;;;4.00;;
15254;SDS011;7730;49.610;11.136;2023-09-08T02:50:42;8.68;;;4.20;;
15254;SDS011;7730;49.610;11.136;2023-09-08T02:53:12;7.60;;;4.10;;
15254;SDS011;7730;49.610;11.136;2023-09-08T02:55:39;8.80;;;4.45;;
15254;SDS011;7730;49.610;11.136;2023-09-08T02:58:06;9.15;;;4.10;;
15254;SDS011;7730;49.610;11.136;2023-09-08T03:00:33;9.18;;;4.00;;
15254;SDS011;7730;49.610;11.136;2023-09-08T03:03:00;8.27;;;4.13;;
15254;SDS011;7730;49.610;11.136;2023-09-08T03:05:27;8.55;;;4.38;;
15254;SDS011;7730;49.610;11.136;2023-09-08T03:07:56;8.68;;;4.20;;
15254;SDS011;7730;49.610;11.136;2023-09-08T03:10:24;10.45;;;4.60;;
15254;SDS011;7730;49.610;11.136;2023-09-08T03:12:53;8.50;;;4.40;;
15254;SDS011;7730;49.610;11.136;2023-09-08T03:15:21;9.52;;;4.13;;
15254;SDS011;7730;49.610;11.136;2023-09-08T03:17:48;8.98;;;4.30;;
15254;SDS011;7730;49.610;11.136;2023-09-08T03:20:15;7.90;;;4.63;;
15254;SDS011;7730;49.610;11.136;2023-09-08T03:22:42;7.32;;;3.95;;
15254;SDS011;7730;49.610;11.136;2023-09-08T03:25:09;9.85;;;4.30;;
15254;SDS011;7730;49.610;11.136;2023-09-08T03:27:40;9.30;;;4.07;;
15254;SDS011;7730;49.610;11.136;2023-09-08T03:30:08;8.63;;;4.35;;
15254;SDS011;7730;49.610;11.136;2023-09-08T03:32:35;8.60;;;4.20;;
15254;SDS011;7730;49.610;11.136;2023-09-08T03:35:02;10.35;;;4.57;;
15254;SDS011;7730;49.610;11.136;2023-09-08T03:37:32;9.30;;;4.38;;
15254;SDS011;7730;49.610;11.136;2023-09-08T03:39:59;9.52;;;4.38;;
15254;SDS011;7730;49.610;11.136;2023-09-08T03:42:31;8.85;;;4.25;;
15254;SDS011;7730;49.610;11.136;2023-09-08T03:45:01;9.05;;;4.32;;
15254;SDS011;7730;49.610;11.136;2023-09-08T03:47:28;8.55;;;4.20;;
15254;SDS011;7730;49.610;11.136;2023-09-08T03:49:55;8.93;;;4.10;;
15254;SDS011;7730;49.610;11.136;2023-09-08T03:52:24;9.43;;;4.20;;
15254;SDS011;7730;49.610;11.136;2023-09-08T03:54:51;9.63;;;4.20;;
15254;SDS011;7730;49.610;11.136;2023-09-08T03:57:18;7.43;;;3.97;;
15254;SDS011;7730;49.610;11.136;2023-09-08T03:59:45;7.65;;;4.00;;
15254;SDS011;7730;49.610;11.136;2023-09-08T04:02:14;8.27;;;4.07;;
15254;SDS011;7730;49.610;11.136;2023-09-08T04:04:42;8.13;;;3.90;;
15254;SDS011;7730;49.610;11.136;2023-09-08T04:07:10;10.38;;;4.88;;
15254;SDS011;7730;49.610;11.136;2023-09-08T04:09:37;11.35;;;5.30;;
15254;SDS011;7730;49.610;11.136;2023-09-08T04:12:05;9.73;;;5.15;;
15254;SDS011;7730;49.610;11.136;2023-09-08T04:14:34;11.75;;;5.47;;
15254;SDS011;7730;49.610;11.136;2023-09-08T04:17:01;11.25;;;4.82;;
15254;SDS011;7730;49.610;11.136;2023-09-08T04:19:30;10.13;;;4.57;;
15254;SDS011;7730;49.610;11.136;2023-09-08T04:21:57;10.88;;;4.60;;
15254;SDS011;7730;49.610;11.136;2023-09-08T04:24:24;8.98;;;4.60;;
15254;SDS011;7730;49.610;11.136;2023-09-08T04:26:51;9.50;;;4.28;;
15254;SDS011;7730;49.610;11.136;2023-09-08T04:29:18;11.80;;;4.47;;
15254;SDS011;7730;49.610;11.136;2023-09-08T04:31:45;9.15;;;4.15;;
15254;SDS011;7730;49.610;11.136;2023-09-08T04:34:12;11.02;;;4.60;;
15254;SDS011;7730;49.610;11.136;2023-09-08T04:36:41;10.40;;;4.72;;
15254;SDS011;7730;49.610;11.136;2023-09-08T04:39:08;10.75;;;5.32;;
15254;SDS011;7730;49.610;11.136;2023-09-08T04:41:36;8.63;;;4.03;;
15254;SDS011;7730;49.610;11.136;2023-09-08T04:44:03;10.10;;;4.15;;
15254;SDS011;7730;49.610;11.136;2023-09-08T04:46:31;8.38;;;4.03;;
15254;SDS011;7730;49.610;11.136;2023-09-08T04:48:58;7.93;;;3.92;;
15254;SDS011;7730;49.610;11.136;2023-09-08T04:51:25;7.78;;;3.92;;
15254;SDS011;7730;49.610;11.136;2023-09-08T04:53:53;8.07;;;3.83;;
15254;SDS011;7730;49.610;11.136;2023-09-08T04:56:20;8.82;;;4.13;;
15254;SDS011;7730;49.610;11.136;2023-09-08T04:58:48;8.27;;;4.22;;
15254;SDS011;7730;49.610;11.136;2023-09-08T05:01:14;9.30;;;3.90;;
15254;SDS011;7730;49.610;11.136;2023-09-08T05:03:41;8.38;;;4.15;;
15254;SDS011;7730;49.610;11.136;2023-09-08T05:06:08;9.50;;;3.90;;
15254;SDS011;7730;49.610;11.136;2023-09-08T05:08:35;8.90;;;3.75;;
15254;SDS011;7730;49.610;11.136;2023-09-08T05:11:04;9.43;;;4.15;;
15254;SDS011;7730;49.610;11.136;2023-09-08T05:13:31;7.25;;;3.60;;
15254;SDS011;7730;49.610;11.136;2023-09-08T05:15:58;7.97;;;3.92;;
15254;SDS011;7730;49.610;11.136;2023-09-08T05:18:35;7.97;;;3.83;;
15254;SDS011;7730;49.610;11.136;2023-09-08T05:21:02;8.77;;;3.92;;
15254;SDS011;7730;49.610;11.136;2023-09-08T05:23:30;8.52;;;3.80;;
15254;SDS011;7730;49.610;11.136;2023-09-08T05:25:57;8.13;;;4.15;;
15254;SDS011;7730;49.610;11.136;2023-09-08T05:28:25;8.77;;;4.00;;
15254;SDS011;7730;49.610;11.136;2023-09-08T05:30:52;8.77;;;3.60;;
15254;SDS011;7730;49.610;11.136;2023-09-08T05:33:20;9.35;;;4.25;;
15254;SDS011;7730;49.610;11.136;2023-09-08T05:35:47;8.75;;;3.90;;
15254;SDS011;7730;49.610;11.136;2023-09-08T05:38:14;8.52;;;3.95;;
15254;SDS011;7730;49.610;11.136;2023-09-08T05:40:41;6.47;;;3.70;;
15254;SDS011;7730;49.610;11.136;2023-09-08T05:43:08;9.50;;;4.40;;
15254;SDS011;7730;49.610;11.136;2023-09-08T05:45:36;9.10;;;4.35;;
15254;SDS011;7730;49.610;11.136;2023-09-08T05:48:04;11.25;;;4.45;;
15254;SDS011;7730;49.610;11.136;2023-09-08T05:50:31;10.57;;;4.70;;
15254;SDS011;7730;49.610;11.136;2023-09-08T05:52:58;10.77;;;4.40;;
15254;SDS011;7730;49.610;11.136;2023-09-08T05:55:24;10.73;;;4.32;;
15254;SDS011;7730;49.610;11.136;2023-09-08T05:57:52;12.20;;;4.25;;
15254;SDS011;7730;49.610;11.136;2023-09-08T06:00:19;11.90;;;4.55;;
15254;SDS011;7730;49.610;11.136;2023-09-08T06:02:48;12.27;;;4.75;;
15254;SDS011;7730;49.610;11.136;2023-09-08T06:05:15;8.95;;;4.20;;
15254;SDS011;7730;49.610;11.136;2023-09-08T06:07:42;9.57;;;4.13;;
15254;SDS011;7730;49.610;11.136;2023-09-08T06:10:10;9.70;;;4.03;;
15254;SDS011;7730;49.610;11.136;2023-09-08T06:12:37;10.38;;;4.53;;
15254;SDS011;7730;49.610;11.136;2023-09-08T06:15:04;8.73;;;4.15;;
15254;SDS011;7730;49.610;11.136;2023-09-08T06:17:32;11.30;;;4.18;;
15254;SDS011;7730;49.610;11.136;2023-09-08T06:20:01;9.02;;;4.55;;
15254;SDS011;7730;49.610;11.136;2023-09-08T06:22:28;11.75;;;4.97;;
15254;SDS011;7730;49.610;11.136;2023-09-08T06:24:56;11.45;;;5.03;;
15254;SDS011;7730;49.610;11.136;2023-09-08T06:27:23;10.50;;;4.45;;
15254;SDS011;7730;49.610;11.136;2023-09-08T06:29:50;9.48;;;4.57;;
15254;SDS011;7730;49.610;11.136;2023-09-08T06:32:17;10.07;;;4.53;;
15254;SDS011;7730;49.610;11.136;2023-09-08T06:34:44;10.15;;;4.65;;
15254;SDS011;7730;49.610;11.136;2023-09-08T06:37:13;10.82;;;4.45;;
15254;SDS011;7730;49.610;11.136;2023-09-08T06:39:40;10.05;;;4.22;;
15254;SDS011;7730;49.610;11.136;2023-09-08T06:42:07;10.00;;;4.47;;
15254;SDS011;7730;49.610;11.136;2023-09-08T06:44:34;9.95;;;4.30;;
15254;SDS011;7730;49.610;11.136;2023-09-08T06:47:01;9.23;;;4.07;;
15254;SDS011;7730;49.610;11.136;2023-09-08T06:49:31;10.20;;;4.30;;
15254;SDS011;7730;49.610;11.136;2023-09-08T06:51:58;10.77;;;4.75;;
15254;SDS011;7730;49.610;11.136;2023-09-08T06:54:27;11.15;;;4.28;;
15254;SDS011;7730;49.610;11.136;2023-09-08T06:56:57;9.60;;;4.03;;
15254;SDS011;7730;49.610;11.136;2023-09-08T06:59:24;8.45;;;4.25;;
15254;SDS011;7730;49.610;11.136;2023-09-08T07:01:51;9.07;;;4.22;;
15254;SDS011;7730;49.610;11.136;2023-09-08T07:04:18;10.27;;;4.43;;
15254;SDS011;7730;49.610;11.136;2023-09-08T07:06:45;9.60;;;4.40;;
15254;SDS011;7730;49.610;11.136;2023-09-08T07:09:12;9.25;;;3.80;;
15254;SDS011;7730;49.610;11.136;2023-09-08T07:11:41;8.45;;;3.88;;
15254;SDS011;7730;49.610;11.136;2023-09-08T07:14:08;8.63;;;3.92;;
15254;SDS011;7730;49.610;11.136;2023-09-08T07:16:35;9.02;;;3.80;;
15254;SDS011;7730;49.610;11.136;2023-09-08T07:19:02;9.38;;;3.85;;
15254;SDS011;7730;49.610;11.136;2023-09-08T07:21:32;8.75;;;4.18;;
15254;SDS011;7730;49.610;11.136;2023-09-08T07:23:59;9.25;;;4.13;;
15254;SDS011;7730;49.610;11.136;2023-09-08T07:26:26;8.80;;;4.13;;
15254;SDS011;7730;49.610;11.136;2023-09-08T07:28:54;11.02;;;4.82;;
15254;SDS011;7730;49.610;11.136;2023-09-08T07:31:21;8.60;;;3.65;;
15254;SDS011;7730;49.610;11.136;2023-09-08T07:33:48;8.77;;;3.85;;
15254;SDS011;7730;49.610;11.136;2023-09-08T07:36:16;9.43;;;4.13;;
15254;SDS011;7730;49.610;11.136;2023-09-08T07:38:43;9.52;;;4.20;;
15254;SDS011;7730;49.610;11.136;2023-09-08T07:41:10;8.80;;;4.00;;
15254;SDS011;7730;49.610;11.136;2023-09-08T07:43:37;8.45;;;3.60;;
15254;SDS011;7730;49.610;11.136;2023-09-08T07:46:07;9.52;;;4.00;;
15254;SDS011;7730;49.610;11.136;2023-09-08T07:48:34;11.63;;;4.10;;
15254;SDS011;7730;49.610;11.136;2023-09-08T07:51:01;8.55;;;3.50;;
15254;SDS011;7730;49.610;11.136;2023-09-08T07:53:28;8.40;;;3.67;;
15254;SDS011;7730;49.610;11.136;2023-09-08T07:55:55;9.25;;;3.78;;
15254;SDS011;7730;49.610;11.136;2023-09-08T07:58:22;8.90;;;3.67;;
15254;SDS011;7730;49.610;11.136;2023-09-08T08:00:49;9.07;;;3.88;;
15254;SDS011;7730;49.610;11.136;2023-09-08T08:03:18;8.90;;;3.50;;
15254;SDS011;7730;49.610;11.136;2023-09-08T08:05:45;7.32;;;3.58;;
15254;SDS011;7730;49.610;11.136;2023-09-08T08:08:13;6.55;;;3.38;;
15254;SDS011;7730;49.610;11.136;2023-09-08T08:10:40;8.23;;;3.63;;
15254;SDS011;7730;49.610;11.136;2023-09-08T08:13:08;6.28;;;3.42;;
15254;SDS011;7730;49.610;11.136;2023-09-08T08:15:35;7.28;;;3.50;;
15254;SDS011;7730;49.610;11.136;2023-09-08T08:18:03;9.73;;;3.30;;
15254;SDS011;7730;49.610;11.136;2023-09-08T08:20:31;8.30;;;3.53;;
15254;SDS011;7730;49.610;11.136;2023-09-08T08:22:59;7.22;;;3.45;;
15254;SDS011;7730;49.610;11.136;2023-09-08T08:25:27;9.07;;;3.63;;
15254;SDS011;7730;49.610;11.136;2023-09-08T08:27:54;8.55;;;3.63;;
15254;SDS011;7730;49.610;11.136;2023-09-08T08:30:24;6.40;;;3.30;;
15254;SDS011;7730;49.610;11.136;2023-09-08T08:32:51;5.60;;;3.28;;
15254;SDS011;7730;49.610;11.136;2023-09-08T08:35:19;8.45;;;3.60;;
15254;SDS011;7730;49.610;11.136;2023-09-08T08:37:47;7.72;;;3.60;;
15254;SDS011;7730;49.610;11.136;2023-09-08T08:40:14;7.85;;;3.53;;
15254;SDS011;7730;49.610;11.136;2023-09-08T08:42:42;7.63;;;3.70;;
15254;SDS011;7730;49.610;11.136;2023-09-08T08:45:09;7.28;;;3.45;;
15254;SDS011;7730;49.610;11.136;2023-09-08T08:47:37;7.35;;;3.38;;
15254;SDS011;7730;49.610;11.136;2023-09-08T08:50:06;7.50;;;3.55;;
15254;SDS011;7730;49.610;11.136;2023-09-08T08:52:36;8.88;;;3.60;;
15254;SDS011;7730;49.610;11.136;2023-09-08T08:55:04;6.80;;;3.20;;
15254;SDS011;7730;49.610;11.136;2023-09-08T08:57:33;7.47;;;3.50;;
15254;SDS011;7730;49.610;11.136;2023-09-08T09:00:00;8.50;;;3.60;;
15254;SDS011;7730;49.610;11.136;2023-09-08T09:02:32;6.88;;;3.40;;
15254;SDS011;7730;49.610;11.136;2023-09-08T09:04:59;8.63;;;3.70;;
15254;SDS011;7730;49.610;11.136;2023-09-08T09:07:26;8.15;;;3.58;;
15254;SDS011;7730;49.610;11.136;2023-09-08T09:09:54;8.45;;;3.40;;
15254;SDS011;7730;49.610;11.136;2023-09-08T09:12:23;7.35;;;3.40;;
15254;SDS011;7730;49.610;11.136;2023-09-08T09:14:52;9.18;;;3.97;;
15254;SDS011;7730;49.610;11.136;2023-09-08T09:17:19;8.00;;;3.70;;
15254;SDS011;7730;49.610;11.136;2023-09-08T09:19:46;7.07;;;3.35;;
15254;SDS011;7730;49.610;11.136;2023-09-08T09:22:13;9.95;;;3.60;;
15254;SDS011;7730;49.610;11.136;2023-09-08T09:24:40;9.02;;;3.70;;
15254;SDS011;7730;49.610;11.136;2023-09-08T09:27:08;7.55;;;3.50;;
15254;SDS011;7730;49.610;11.136;2023-09-08T09:29:43;8.38;;;3.88;;
15254;SDS011;7730;49.610;11.136;2023-09-08T09:32:11;5.95;;;3.17;;
15254;SDS011;7730;49.610;11.136;2023-09-08T09:34:47;6.25;;;3.30;;
15254;SDS011;7730;49.610;11.136;2023-09-08T09:37:15;6.65;;;3.20;;
15254;SDS011;7730;49.610;11.136;2023-09-08T09:39:42;6.55;;;3.20;;
15254;SDS011;7730;49.610;11.136;2023-09-08T09:42:08;6.13;;;3.22;;
15254;SDS011;7730;49.610;11.136;2023-09-08T09:44:35;6.63;;;3.17;;
15254;SDS011;7730;49.610;11.136;2023-09-08T09:47:04;6.95;;;3.35;;
15254;SDS011;7730;49.610;11.136;2023-09-08T09:49:32;5.68;;;3.10;;
15254;SDS011;7730;49.610;11.136;2023-09-08T09:51:59;7.88;;;3.40;;
15254;SDS011;7730;49.610;11.136;2023-09-08T09:54:26;11.02;;;4.05;;
15254;SDS011;7730;49.610;11.136;2023-09-08T09:56:55;7.20;;;3.40;;
15254;SDS011;7730;49.610;11.136;2023-09-08T09:59:22;7.30;;;3.38;;
15254;SDS011;7730;49.610;11.136;2023-09-08T10:01:51;6.30;;;3.30;;
15254;SDS011;7730;49.610;11.136;2023-09-08T10:04:20;7.70;;;3.53;;
15254;SDS011;7730;49.610;11.136;2023-09-08T10:06:47;6.95;;;3.42;;
15254;SDS011;7730;49.610;11.136;2023-09-08T10:09:16;6.32;;;3.30;;
15254;SDS011;7730;49.610;11.136;2023-09-08T10:11:44;7.15;;;2.97;;
15254;SDS011;7730;49.610;11.136;2023-09-08T10:14:13;8.05;;;2.95;;
15254;SDS011;7730;49.610;11.136;2023-09-08T10:16:42;6.63;;;3.35;;
15254;SDS011;7730;49.610;11.136;2023-09-08T10:19:10;6.63;;;3.42;;
15254;SDS011;7730;49.610;11.136;2023-09-08T10:21:40;7.55;;;3.50;;
15254;SDS011;7730;49.610;11.136;2023-09-08T10:24:10;7.50;;;3.25;;
15254;SDS011;7730;49.610;11.136;2023-09-08T10:26:39;6.68;;;3.30;;
15254;SDS011;7730;49.610;11.136;2023-09-08T10:29:08;8.27;;;3.20;;
15254;SDS011;7730;49.610;11.136;2023-09-08T10:31:36;6.43;;;3.20;;
15254;SDS011;7730;49.610;11.136;2023-09-08T10:34:03;7.05;;;3.40;;
15254;SDS011;7730;49.610;11.136;2023-09-08T10:36:30;6.10;;;3.47;;
15254;SDS011;7730;49.610;11.136;2023-09-08T10:41:41;6.25;;;3.20;;
15254;SDS011;7730;49.610;11.136;2023-09-08T10:44:10;8.43;;;3.30;;
15254;SDS011;7730;49.610;11.136;2023-09-08T10:46:41;7.78;;;3.30;;
15254;SDS011;7730;49.610;11.136;2023-09-08T10:49:09;6.72;;;3.30;;
15254;SDS011;7730;49.610;11.136;2023-09-08T10:51:37;6.50;;;3.20;;
15254;SDS011;7730;49.610;11.136;2023-09-08T10:54:05;6.72;;;3.33;;
15254;SDS011;7730;49.610;11.136;2023-09-08T10:59:16;8.82;;;3.22;;
15254;SDS011;7730;49.610;11.136;2023-09-08T11:01:43;6.55;;;3.33;;
15254;SDS011;7730;49.610;11.136;2023-09-08T11:04:11;8.70;;;3.28;;
15254;SDS011;7730;49.610;11.136;2023-09-08T11:06:38;8.05;;;3.60;;
15254;SDS011;7730;49.610;11.136;2023-09-08T11:09:05;6.53;;;3.30;;
15254;SDS011;7730;49.610;11.136;2023-09-08T11:11:33;6.10;;;3.15;;
15254;SDS011;7730;49.610;11.136;2023-09-08T11:14:02;6.47;;;3.00;;
15254;SDS011;7730;49.610;11.136;2023-09-08T11:16:31;6.43;;;3.15;;
15254;SDS011;7730;49.610;11.136;2023-09-08T11:18:58;5.53;;;3.00;;
15254;SDS011;7730;49.610;11.136;2023-09-08T11:21:29;7.00;;;3.42;;
15254;SDS011;7730;49.610;11.136;2023-09-08T11:23:59;6.35;;;3.20;;
15254;SDS011;7730;49.610;11.136;2023-09-08T11:26:27;6.82;;;3.20;;
15254;SDS011;7730;49.610;11.136;2023-09-08T11:28:54;6.95;;;3.33;;
15254;SDS011;7730;49.610;11.136;2023-09-08T11:31:21;5.93;;;3.10;;
15254;SDS011;7730;49.610;11.136;2023-09-08T11:33:49;7.40;;;3.13;;
15254;SDS011;7730;49.610;11.136;2023-09-08T11:36:21;8.15;;;3.05;;
15254;SDS011;7730;49.610;11.136;2023-09-08T11:38:48;8.32;;;3.60;;
15254;SDS011;7730;49.610;11.136;2023-09-08T11:41:15;7.13;;;3.20;;
15254;SDS011;7730;49.610;11.136;2023-09-08T11:43:47;7.05;;;3.00;;
15254;SDS011;7730;49.610;11.136;2023-09-08T11:46:14;6.25;;;3.20;;
15254;SDS011;7730;49.610;11.136;2023-09-08T11:48:41;6.57;;;3.22;;
15254;SDS011;7730;49.610;11.136;2023-09-08T11:51:09;6.65;;;2.90;;
15254;SDS011;7730;49.610;11.136;2023-09-08T11:53:36;7.35;;;3.22;;
15254;SDS011;7730;49.610;11.136;2023-09-08T11:56:04;6.22;;;2.80;;
15254;SDS011;7730;49.610;11.136;2023-09-08T11:58:31;6.38;;;3.17;;
15254;SDS011;7730;49.610;11.136;2023-09-08T12:00:58;6.65;;;3.05;;
15254;SDS011;7730;49.610;11.136;2023-09-08T12:03:25;8.40;;;3.30;;
15254;SDS011;7730;49.610;11.136;2023-09-08T12:05:52;6.45;;;3.13;;
15254;SDS011;7730;49.610;11.136;2023-09-08T12:08:24;6.97;;;3.00;;
15254;SDS011;7730;49.610;11.136;2023-09-08T12:10:53;6.38;;;3.17;;
15254;SDS011;7730;49.610;11.136;2023-09-08T12:13:20;7.40;;;3.33;;
15254;SDS011;7730;49.610;11.136;2023-09-08T12:15:47;7.13;;;3.10;;
15254;SDS011;7730;49.610;11.136;2023-09-08T12:18:14;5.53;;;2.95;;
15254;SDS011;7730;49.610;11.136;2023-09-08T12:20:42;6.72;;;2.83;;
15254;SDS011;7730;49.610;11.136;2023-09-08T12:23:15;6.53;;;3.05;;
15254;SDS011;7730;49.610;11.136;2023-09-08T12:25:45;5.82;;;3.10;;
15254;SDS011;7730;49.610;11.136;2023-09-08T12:28:12;5.55;;;3.17;;
15254;SDS011;7730;49.610;11.136;2023-09-08T12:30:40;5.78;;;2.90;;
15254;SDS011;7730;49.610;11.136;2023-09-08T12:33:07;6.47;;;3.22;;
15254;SDS011;7730;49.610;11.136;2023-09-08T12:35:36;6.97;;;3.08;;
15254;SDS011;7730;49.610;11.136;2023-09-08T12:38:03;8.00;;;3.17;;
15254;SDS011;7730;49.610;11.136;2023-09-08T12:40:32;5.25;;;2.67;;
15254;SDS011;7730;49.610;11.136;2023-09-08T12:43:01;8.43;;;3.08;;
15254;SDS011;7730;49.610;11.136;2023-09-08T12:45:28;6.85;;;3.00;;
15254;SDS011;7730;49.610;11.136;2023-09-08T12:47:57;5.32;;;2.78;;
15254;SDS011;7730;49.610;11.136;2023-09-08T12:50:24;5.82;;;2.80;;
15254;SDS011;7730;49.610;11.136;2023-09-08T12:52:51;6.40;;;2.72;;
15254;SDS011;7730;49.610;11.136;2023-09-08T12:55:19;7.40;;;3.20;;
15254;SDS011;7730;49.610;11.136;2023-09-08T12:57:47;6.55;;;3.10;;
15254;SDS011;7730;49.610;11.136;2023-09-08T13:00:16;6.05;;;2.88;;
15254;SDS011;7730;49.610;11.136;2023-09-08T13:02:43;4.93;;;2.63;;
15254;SDS011;7730;49.610;11.136;2023-09-08T13:05:10;5.75;;;2.70;;
15254;SDS011;7730;49.610;11.136;2023-09-08T13:07:38;4.90;;;2.53;;
15254;SDS011;7730;49.610;11.136;2023-09-08T13:10:05;6.07;;;3.00;;
15254;SDS011;7730;49.610;11.136;2023-09-08T13:12:32;6.05;;;2.95;;
15254;SDS011;7730;49.610;11.136;2023-09-08T13:14:59;6.03;;;3.20;;
15254;SDS011;7730;49.610;11.136;2023-09-08T13:17:28;4.80;;;2.85;;
15254;SDS011;7730;49.610;11.136;2023-09-08T13:19:55;6.30;;;3.00;;
15254;SDS011;7730;49.610;11.136;2023-09-08T13:22:22;5.47;;;2.92;;
15254;SDS011;7730;49.610;11.136;2023-09-08T13:24:49;5.50;;;2.90;;
15254;SDS011;7730;49.610;11.136;2023-09-08T13:27:16;6.57;;;2.80;;
15254;SDS011;7730;49.610;11.136;2023-09-08T13:29:43;5.13;;;2.88;;
15254;SDS011;7730;49.610;11.136;2023-09-08T13:32:10;5.68;;;3.00;;
15254;SDS011;7730;49.610;11.136;2023-09-08T13:34:39;6.63;;;2.97;;
15254;SDS011;7730;49.610;11.136;2023-09-08T13:37:08;7.15;;;2.90;;
15254;SDS011;7730;49.610;11.136;2023-09-08T13:39:36;5.90;;;3.08;;
15254;SDS011;7730;49.610;11.136;2023-09-08T13:42:03;6.97;;;2.83;;
15254;SDS011;7730;49.610;11.136;2023-09-08T13:44:30;7.20;;;3.20;;
15254;SDS011;7730;49.610;11.136;2023-09-08T13:46:57;7.32;;;3.10;;
15254;SDS011;7730;49.610;11.136;2023-09-08T13:49:25;6.38;;;2.90;;
15254;SDS011;7730;49.610;11.136;2023-09-08T13:51:54;6.40;;;3.10;;
15254;SDS011;7730;49.610;11.136;2023-09-08T13:54:21;5.97;;;3.05;;
15254;SDS011;7730;49.610;11.136;2023-09-08T13:56:56;6.25;;;3.28;;
15254;SDS011;7730;49.610;11.136;2023-09-08T13:59:24;6.07;;;3.03;;
15254;SDS011;7730;49.610;11.136;2023-09-08T14:01:51;7.20;;;2.85;;
15254;SDS011;7730;49.610;11.136;2023-09-08T14:04:18;6.75;;;3.00;;
15254;SDS011;7730;49.610;11.136;2023-09-08T14:06:46;5.95;;;2.80;;
15254;SDS011;7730;49.610;11.136;2023-09-08T14:09:14;6.18;;;3.10;;
15254;SDS011;7730;49.610;11.136;2023-09-08T14:11:41;6.38;;;3.15;;
15254;SDS011;7730;49.610;11.136;2023-09-08T14:14:09;6.13;;;3.05;;
15254;SDS011;7730;49.610;11.136;2023-09-08T14:16:36;7.75;;;3.03;;
15254;SDS011;7730;49.610;11.136;2023-09-08T14:19:03;4.78;;;2.67;;
15254;SDS011;7730;49.610;11.136;2023-09-08T14:21:30;7.07;;;3.00;;
15254;SDS011;7730;49.610;11.136;2023-09-08T14:23:57;6.68;;;3.00;;
15254;SDS011;7730;49.610;11.136;2023-09-08T14:26:25;6.78;;;3.00;;
15254;SDS011;7730;49.610;11.136;2023-09-08T14:28:52;7.50;;;2.92;;
15254;SDS011;7730;49.610;11.136;2023-09-08T14:31:19;6.32;;;2.97;;
15254;SDS011;7730;49.610;11.136;2023-09-08T14:33:46;4.93;;;3.00;;
15254;SDS011;7730;49.610;11.136;2023-09-08T14:36:16;6.15;;;2.95;;
15254;SDS011;7730;49.610;11.136;2023-09-08T14:38:43;5.20;;;2.85;;
15254;SDS011;7730;49.610;11.136;2023-09-08T14:41:10;6.22;;;3.10;;
15254;SDS011;7730;49.610;11.136;2023-09-08T14:43:39;5.88;;;2.90;;
15254;SDS011;7730;49.610;11.136;2023-09-08T14:46:06;8.20;;;3.08;;
15254;SDS011;7730;49.610;11.136;2023-09-08T14:48:33;7.15;;;3.10;;
15254;SDS011;7730;49.610;11.136;2023-09-08T14:51:01;6.32;;;2.75;;
15254;SDS011;7730;49.610;11.136;2023-09-08T14:53:28;6.53;;;3.00;;